createdAt,value
2023-05-14T00:02:26.981Z,66.46
2023-05-14T00:05:29.095Z,66.45
2023-05-14T00:08:30.840Z,66.26
2023-05-14T00:11:32.670Z,66.16
2023-05-14T00:14:34.598Z,66.43
2023-05-14T00:17:37.261Z,66.42
2023-05-14T00:20:39.210Z,66.81
2023-05-14T00:23:40.961Z,66.34
2023-05-14T00:26:42.724Z,66.41
2023-05-14T00:29:45.725Z,66.53
2023-05-14T00:32:47.709Z,66.69
2023-05-14T00:35:49.623Z,66.78
2023-05-14T00:38:51.515Z,66.60
2023-05-14T00:41:53.400Z,66.57
2023-05-14T00:44:55.552Z,66.79
2023-05-14T00:47:57.415Z,66.54
2023-05-14T00:50:59.449Z,66.89
2023-05-14T00:54:02.060Z,66.65
2023-05-14T00:57:06.273Z,66.67
2023-05-14T01:00:09.056Z,66.73
2023-05-14T01:03:10.912Z,66.54
2023-05-14T01:06:23.965Z,66.77
2023-05-14T01:09:36.493Z,66.88
2023-05-14T01:12:57.115Z,66.55
2023-05-14T01:16:01.151Z,66.21
2023-05-14T01:19:08.023Z,66.50
2023-05-14T01:22:10.734Z,67.09
2023-05-14T01:25:13.349Z,66.41
2023-05-14T01:28:32.554Z,67.36
2023-05-14T01:31:39.138Z,66.78
2023-05-14T01:34:41.986Z,67.08
2023-05-14T01:37:44.807Z,67.36
2023-05-14T01:40:50.398Z,67.67
2023-05-14T01:43:52.539Z,67.99
2023-05-14T01:46:54.274Z,68.24
2023-05-14T01:49:56.179Z,68.11
2023-05-14T01:52:58.025Z,68.81
2023-05-14T01:55:59.757Z,68.72
2023-05-14T01:59:01.492Z,68.45
2023-05-14T02:02:03.913Z,68.34
2023-05-14T02:05:07.118Z,67.92
2023-05-14T02:08:08.996Z,67.95
2023-05-14T02:11:10.999Z,67.75
2023-05-14T02:14:12.896Z,68.43
2023-05-14T02:17:17.721Z,68.68
2023-05-14T02:20:19.712Z,68.86
2023-05-14T02:23:31.075Z,68.51
2023-05-14T02:26:40.006Z,68.74
2023-05-14T02:29:41.923Z,68.96
2023-05-14T02:37:12.008Z,68.69
2023-05-14T02:40:13.949Z,68.58
2023-05-14T02:43:15.956Z,68.54
2023-05-14T02:46:17.755Z,68.36
2023-05-14T02:49:19.656Z,68.31
2023-05-14T02:52:21.426Z,68.25
2023-05-14T02:55:26.507Z,68.03
2023-05-14T02:58:28.618Z,68.04
2023-05-14T03:01:30.867Z,68.14
2023-05-14T03:04:33.005Z,68.02
2023-05-14T03:07:34.699Z,67.99
2023-05-14T03:10:37.132Z,68.26
2023-05-14T03:13:38.838Z,68.16
2023-05-14T03:16:42.383Z,68.21
2023-05-14T03:19:44.459Z,68.29
2023-05-14T03:22:46.282Z,68.43
2023-05-14T03:25:49.139Z,68.23
2023-05-14T03:28:51.092Z,68.11
2023-05-14T03:31:54.448Z,68.32
2023-05-14T03:34:56.349Z,67.78
2023-05-14T03:37:59.395Z,67.87
2023-05-14T03:41:01.597Z,67.89
2023-05-14T03:44:03.381Z,67.92
2023-05-14T03:47:05.276Z,67.76
2023-05-14T03:50:08.073Z,67.45
2023-05-14T03:53:09.854Z,67.46
2023-05-14T03:56:11.646Z,67.37
2023-05-14T03:59:13.474Z,67.25
2023-05-14T04:02:15.720Z,66.92
2023-05-14T04:05:17.734Z,67.09
2023-05-14T04:08:20.440Z,67.14
2023-05-14T04:11:22.230Z,67.29
2023-05-14T04:14:25.068Z,67.25
2023-05-14T04:17:27.657Z,67.11
2023-05-14T04:20:29.453Z,66.91
2023-05-14T04:23:32.050Z,66.96
2023-05-14T04:26:33.880Z,66.36
2023-05-14T04:29:35.612Z,66.29
2023-05-14T04:32:38.058Z,65.81
2023-05-14T04:35:39.832Z,65.83
2023-05-14T04:38:41.832Z,65.44
2023-05-14T04:41:43.618Z,65.57
2023-05-14T04:44:45.450Z,65.16
2023-05-14T04:47:47.329Z,65.21
2023-05-14T04:50:49.221Z,65.17
2023-05-14T04:53:51.005Z,64.76
2023-05-14T04:56:52.745Z,64.14
2023-05-14T04:59:54.474Z,63.88
2023-05-14T05:02:56.442Z,63.47
2023-05-14T05:05:58.366Z,63.05
2023-05-14T05:09:01.993Z,62.57
2023-05-14T05:12:04.421Z,62.00
2023-05-14T05:15:07.181Z,60.70
2023-05-14T05:18:09.178Z,59.13
2023-05-14T05:21:11.011Z,57.95
2023-05-14T05:24:13.458Z,56.46
2023-05-14T05:27:15.208Z,55.32
2023-05-14T05:30:16.986Z,54.62
2023-05-14T05:33:19.877Z,53.73
2023-05-14T05:36:21.600Z,53.24
2023-05-14T05:39:23.372Z,52.24
2023-05-14T05:42:26.186Z,51.09
2023-05-14T05:45:28.009Z,50.42
2023-05-14T05:48:29.836Z,49.56
2023-05-14T05:51:31.934Z,50.28
2023-05-14T05:54:34.355Z,50.36
2023-05-14T05:57:36.176Z,49.23
2023-05-14T06:00:38.121Z,48.18
2023-05-14T06:03:39.933Z,47.68
2023-05-14T06:06:42.029Z,47.16
2023-05-14T06:09:43.788Z,46.52
2023-05-14T06:12:45.741Z,46.19
2023-05-14T06:15:47.860Z,45.25
2023-05-14T06:18:49.674Z,44.23
2023-05-14T06:21:51.396Z,44.20
2023-05-14T06:24:53.256Z,44.19
2023-05-14T06:27:55.030Z,43.12
2023-05-14T06:30:56.978Z,43.40
2023-05-14T06:33:58.741Z,43.41
2023-05-14T06:37:02.803Z,42.64
2023-05-14T06:40:05.740Z,42.03
2023-05-14T06:43:07.631Z,41.80
2023-05-14T06:46:09.377Z,41.81
2023-05-14T06:49:11.124Z,41.25
2023-05-14T06:52:12.970Z,41.13
2023-05-14T06:55:14.782Z,40.76
2023-05-14T06:58:16.650Z,40.85
2023-05-14T07:01:18.451Z,39.42
2023-05-14T07:04:20.347Z,38.69
2023-05-14T07:07:24.014Z,38.03
2023-05-14T07:10:26.430Z,36.49
2023-05-14T07:13:28.865Z,35.28
2023-05-14T07:16:30.970Z,34.65
2023-05-14T07:19:32.802Z,34.00
2023-05-14T07:22:34.517Z,33.56
2023-05-14T07:25:36.427Z,33.58
2023-05-14T07:28:38.173Z,33.25
2023-05-14T07:31:40.007Z,33.07
2023-05-14T07:34:41.886Z,32.79
2023-05-14T07:37:44.200Z,32.68
2023-05-14T07:40:46.062Z,32.51
2023-05-14T07:43:47.986Z,31.97
2023-05-14T07:46:49.823Z,32.06
2023-05-14T07:49:56.180Z,31.59
2023-05-14T07:52:58.345Z,31.74
2023-05-14T07:56:00.279Z,31.53
2023-05-14T07:59:02.174Z,30.92
2023-05-14T08:02:04.047Z,31.22
2023-05-14T08:05:06.488Z,31.22
2023-05-14T08:08:08.206Z,31.22
2023-05-14T08:11:10.036Z,30.85
2023-05-14T08:14:11.975Z,30.78
2023-05-14T08:17:13.827Z,30.52
2023-05-14T08:20:15.701Z,30.70
2023-05-14T08:23:52.608Z,30.25
2023-05-14T08:26:54.635Z,30.37
2023-05-14T08:29:58.491Z,30.18
2023-05-14T08:33:00.699Z,30.30
2023-05-14T08:36:03.633Z,30.07
2023-05-14T08:39:08.165Z,30.42
2023-05-14T08:42:15.722Z,30.67
2023-05-14T08:45:19.147Z,30.77
2023-05-14T08:48:23.080Z,30.13
2023-05-14T08:51:27.733Z,30.41
2023-05-14T08:54:32.579Z,30.51
2023-05-14T08:57:34.975Z,30.51
2023-05-14T09:00:37.689Z,30.52
2023-05-14T09:03:43.037Z,30.51
2023-05-14T09:06:49.880Z,30.29
2023-05-14T09:09:53.724Z,30.08
2023-05-14T09:12:56.291Z,29.75
2023-05-14T09:15:59.138Z,29.42
2023-05-14T09:19:01.028Z,29.50
2023-05-14T09:22:12.602Z,29.46
2023-05-14T09:25:14.411Z,29.41
2023-05-14T09:28:17.731Z,29.72
2023-05-14T09:31:19.745Z,29.33
2023-05-14T09:34:32.804Z,29.26
2023-05-14T09:37:36.733Z,29.68
2023-05-14T09:40:38.561Z,29.76
2023-05-14T09:43:40.252Z,29.23
2023-05-14T09:46:42.280Z,28.97
2023-05-14T09:49:45.151Z,29.11
2023-05-14T09:52:46.847Z,28.87
2023-05-14T09:55:49.417Z,28.85
2023-05-14T09:58:51.230Z,28.33
2023-05-14T10:01:54.926Z,28.54
2023-05-14T10:05:02.702Z,28.40
2023-05-14T10:08:27.614Z,28.63
2023-05-14T10:11:33.679Z,28.78
2023-05-14T10:14:47.369Z,28.56
2023-05-14T10:17:55.830Z,28.59
2023-05-14T10:21:05.680Z,28.15
2023-05-14T10:24:08.425Z,27.73
2023-05-14T10:27:10.610Z,27.48
2023-05-14T10:30:13.058Z,27.57
2023-05-14T10:33:16.845Z,27.48
2023-05-14T10:36:18.931Z,27.12
2023-05-14T10:39:20.755Z,26.62
2023-05-14T10:42:23.627Z,27.43
2023-05-14T10:45:25.575Z,27.17
2023-05-14T10:48:27.746Z,27.25
2023-05-14T10:51:30.260Z,27.38
2023-05-14T10:54:35.811Z,26.97
2023-05-14T10:57:40.108Z,27.19
2023-05-14T11:00:42.050Z,27.13
2023-05-14T11:03:46.525Z,27.04
2023-05-14T11:06:48.659Z,26.54
2023-05-14T11:09:51.495Z,26.08
2023-05-14T11:12:53.206Z,26.48
2023-05-14T11:15:56.649Z,26.66
2023-05-14T11:19:03.788Z,26.32
2023-05-14T11:22:05.737Z,26.96
2023-05-14T11:25:10.139Z,26.86
2023-05-14T11:28:12.140Z,26.82
2023-05-14T11:31:31.763Z,27.09
2023-05-14T11:34:38.729Z,27.12
2023-05-14T11:37:40.749Z,27.26
2023-05-14T11:40:43.148Z,27.14
2023-05-14T11:43:44.897Z,27.19
2023-05-14T11:46:57.248Z,27.85
2023-05-14T11:50:00.887Z,27.71
2023-05-14T11:53:02.696Z,27.24
2023-05-14T11:56:04.957Z,27.58
2023-05-14T11:59:07.935Z,27.24
2023-05-14T12:02:14.949Z,27.08
2023-05-14T12:05:16.782Z,27.09
2023-05-14T12:08:32.148Z,27.03
2023-05-14T12:11:36.384Z,26.91
2023-05-14T12:14:42.910Z,26.58
2023-05-14T12:17:50.717Z,26.82
2023-05-14T12:20:52.570Z,26.92
2023-05-14T12:24:00.184Z,26.87
2023-05-14T12:27:03.159Z,27.26
2023-05-14T12:30:20.614Z,27.03
2023-05-14T12:33:26.696Z,27.10
2023-05-14T12:36:28.770Z,27.58
2023-05-14T12:39:33.813Z,27.67
2023-05-14T12:42:35.817Z,27.56
2023-05-14T12:45:37.686Z,27.53
2023-05-14T12:48:39.498Z,27.66
2023-05-14T12:51:41.207Z,27.70
2023-05-14T12:54:43.507Z,27.74
2023-05-14T12:57:45.474Z,28.05
2023-05-14T13:00:47.271Z,28.04
2023-05-14T13:03:49.296Z,27.96
2023-05-14T13:06:51.118Z,28.04
2023-05-14T13:09:52.923Z,27.95
2023-05-14T13:12:56.378Z,27.91
2023-05-14T13:15:58.132Z,28.06
2023-05-14T13:18:59.901Z,28.03
2023-05-14T13:22:01.670Z,28.32
2023-05-14T13:25:03.554Z,28.34
2023-05-14T13:28:05.739Z,28.18
2023-05-14T13:31:12.788Z,28.31
2023-05-14T13:34:14.842Z,28.06
2023-05-14T13:37:16.777Z,28.47
2023-05-14T13:40:18.695Z,28.19
2023-05-14T13:43:20.528Z,28.50
2023-05-14T13:46:22.380Z,28.66
2023-05-14T13:49:24.120Z,29.03
2023-05-14T13:52:26.582Z,29.22
2023-05-14T13:55:28.339Z,29.17
2023-05-14T13:58:30.492Z,29.52
2023-05-14T14:01:32.283Z,29.90
2023-05-14T14:04:34.254Z,29.84
2023-05-14T14:07:36.039Z,29.94
2023-05-14T14:10:40.911Z,30.19
2023-05-14T14:13:43.802Z,30.47
2023-05-14T14:16:47.464Z,30.21
2023-05-14T14:19:49.237Z,30.36
2023-05-14T14:22:51.012Z,30.32
2023-05-14T14:25:52.757Z,30.69
2023-05-14T14:28:54.656Z,30.71
2023-05-14T14:31:56.567Z,31.08
2023-05-14T14:34:58.433Z,30.98
2023-05-14T14:38:00.124Z,31.31
2023-05-14T14:41:07.100Z,31.28
2023-05-14T14:44:08.876Z,31.36
2023-05-14T14:47:10.645Z,31.24
2023-05-14T14:50:13.321Z,31.64
2023-05-14T14:53:15.100Z,31.61
2023-05-14T14:56:16.844Z,31.61
2023-05-14T14:59:18.565Z,31.72
2023-05-14T15:02:20.437Z,31.93
2023-05-14T15:05:22.309Z,32.34
2023-05-14T15:08:28.211Z,32.42
2023-05-14T15:11:30.224Z,32.62
2023-05-14T15:14:31.924Z,32.62
2023-05-14T15:17:33.907Z,32.86
2023-05-14T15:20:35.803Z,32.68
2023-05-14T15:23:37.602Z,32.88
2023-05-14T15:26:39.732Z,32.83
2023-05-14T15:29:41.631Z,33.42
2023-05-14T15:32:44.617Z,33.07
2023-05-14T15:35:46.417Z,33.16
2023-05-14T15:38:48.342Z,33.25
2023-05-14T15:41:50.147Z,33.47
2023-05-14T15:44:51.921Z,33.44
2023-05-14T15:47:53.892Z,33.59
2023-05-14T15:50:55.934Z,33.64
2023-05-14T15:53:57.821Z,33.78
2023-05-14T15:56:59.668Z,33.86
2023-05-14T16:00:01.804Z,33.87
2023-05-14T16:03:06.402Z,34.27
2023-05-14T16:06:08.272Z,34.50
2023-05-14T16:09:10.151Z,34.98
2023-05-14T16:12:12.550Z,35.58
2023-05-14T16:15:14.322Z,35.84
2023-05-14T16:18:16.410Z,36.46
2023-05-14T16:21:18.194Z,37.38
2023-05-14T16:24:19.986Z,37.24
2023-05-14T16:27:25.068Z,37.78
2023-05-14T16:30:26.975Z,38.10
2023-05-14T16:33:28.770Z,38.67
2023-05-14T16:36:31.446Z,38.64
2023-05-14T16:39:33.185Z,39.54
2023-05-14T16:42:34.891Z,40.25
2023-05-14T16:45:37.493Z,41.09
2023-05-14T16:48:39.420Z,42.21
2023-05-14T16:51:43.244Z,42.77
2023-05-14T16:54:45.045Z,43.37
2023-05-14T16:57:46.812Z,43.86
2023-05-14T17:00:48.472Z,43.94
2023-05-14T17:03:50.209Z,44.03
2023-05-14T17:06:54.518Z,44.53
2023-05-14T17:09:56.379Z,44.79
2023-05-14T17:12:58.079Z,45.99
2023-05-14T17:16:00.634Z,46.35
2023-05-14T17:19:02.487Z,47.25
2023-05-14T17:22:05.959Z,47.14
2023-05-14T17:25:08.784Z,47.33
2023-05-14T17:28:10.664Z,47.85
2023-05-14T17:31:12.407Z,48.72
2023-05-14T17:34:14.224Z,49.35
2023-05-14T17:37:16.263Z,50.31
2023-05-14T17:40:18.102Z,50.32
2023-05-14T17:43:19.900Z,50.68
2023-05-14T17:46:21.657Z,50.91
2023-05-14T17:49:23.463Z,51.06
2023-05-14T17:52:25.419Z,51.58
2023-05-14T17:55:27.315Z,52.12
2023-05-14T17:58:29.047Z,52.72
2023-05-14T18:01:31.005Z,52.66
2023-05-14T18:04:32.926Z,53.33
2023-05-14T18:07:36.217Z,53.32
2023-05-14T18:10:46.054Z,53.96
2023-05-14T18:13:47.757Z,54.40
2023-05-14T18:16:50.299Z,54.72
2023-05-14T18:19:54.991Z,54.80
2023-05-14T18:22:56.807Z,54.37
2023-05-14T18:25:59.398Z,54.79
2023-05-14T18:29:01.282Z,54.91
2023-05-14T18:32:03.254Z,54.36
2023-05-14T18:35:07.885Z,54.48
2023-05-14T18:38:11.917Z,55.14
2023-05-14T18:41:13.699Z,56.32
2023-05-14T18:44:15.400Z,57.05
2023-05-14T18:47:17.118Z,57.52
2023-05-14T18:50:21.422Z,57.70
2023-05-14T18:53:23.229Z,57.49
2023-05-14T18:56:25.746Z,56.98
2023-05-14T18:59:27.591Z,56.29
2023-05-14T19:02:29.381Z,55.77
2023-05-14T19:05:31.339Z,54.98
2023-05-14T19:08:33.243Z,55.18
2023-05-14T19:11:35.054Z,56.18
2023-05-14T19:14:36.824Z,55.96
2023-05-14T19:17:38.878Z,55.47
2023-05-14T19:20:40.722Z,55.65
2023-05-14T19:23:42.645Z,55.80
2023-05-14T19:26:44.716Z,56.69
2023-05-14T19:29:46.765Z,57.40
2023-05-14T19:32:49.356Z,58.23
2023-05-14T19:35:51.338Z,59.24
2023-05-14T19:38:53.049Z,60.89
2023-05-14T19:41:54.840Z,61.04
2023-05-14T19:44:56.577Z,61.96
2023-05-14T19:47:58.376Z,62.58
2023-05-14T19:51:00.287Z,63.27
2023-05-14T19:54:02.087Z,63.89
2023-05-14T19:57:04.428Z,64.49
2023-05-14T20:00:08.880Z,64.27
2023-05-14T20:03:12.286Z,63.97
2023-05-14T20:06:17.519Z,63.18
2023-05-14T20:09:20.135Z,62.44
2023-05-14T20:12:21.922Z,62.01
2023-05-14T20:15:23.684Z,61.71
2023-05-14T20:18:25.921Z,61.53
2023-05-14T20:21:27.623Z,61.97
2023-05-14T20:24:29.468Z,62.03
2023-05-14T20:27:32.749Z,62.11
2023-05-14T20:30:37.624Z,62.12
2023-05-14T20:33:39.560Z,62.37
2023-05-14T20:36:41.898Z,63.18
2023-05-14T20:39:43.973Z,64.24
2023-05-14T20:42:45.812Z,64.67
2023-05-14T20:45:47.601Z,64.85
2023-05-14T20:48:49.572Z,65.38
2023-05-14T20:51:51.346Z,65.99
2023-05-14T20:54:53.548Z,66.27
2023-05-14T20:57:55.578Z,66.61
2023-05-14T21:00:58.585Z,66.61
2023-05-14T21:04:01.680Z,66.88
2023-05-14T21:07:06.886Z,66.76
2023-05-14T21:10:09.305Z,67.18
2023-05-14T21:13:11.240Z,67.00
2023-05-14T21:16:13.214Z,67.26
2023-05-14T21:19:15.537Z,67.65
2023-05-14T21:22:18.814Z,67.78
2023-05-14T21:25:20.659Z,68.09
2023-05-14T21:28:22.685Z,68.33
2023-05-14T21:31:24.423Z,68.25
2023-05-14T21:34:26.316Z,67.95
2023-05-14T21:37:28.138Z,68.09
2023-05-14T21:40:30.015Z,68.27
2023-05-14T21:43:31.750Z,68.55
2023-05-14T21:46:33.872Z,68.67
2023-05-14T21:49:35.826Z,68.91
2023-05-14T21:52:38.491Z,69.10
2023-05-14T21:55:40.530Z,69.13
2023-05-14T21:58:42.345Z,69.24
2023-05-14T22:04:48.740Z,69.74
2023-05-14T22:07:50.678Z,70.22
2023-05-14T22:10:52.392Z,70.46
2023-05-14T22:13:54.246Z,70.48
2023-05-14T22:16:57.704Z,70.62
2023-05-14T22:19:59.500Z,70.22
2023-05-14T22:23:01.315Z,70.15
2023-05-14T22:26:03.914Z,69.88
2023-05-14T22:29:05.757Z,69.87
2023-05-14T22:32:08.277Z,69.22
2023-05-14T22:35:10.281Z,68.97
2023-05-14T22:38:13.656Z,68.77
2023-05-14T22:41:17.587Z,68.84
2023-05-14T22:44:19.404Z,68.87
2023-05-14T22:47:21.184Z,69.02
2023-05-14T22:50:23.220Z,69.29
2023-05-14T22:53:25.325Z,69.24
2023-05-14T22:56:28.050Z,68.73
2023-05-14T22:59:29.821Z,68.90
2023-05-14T23:02:31.801Z,68.57
2023-05-14T23:05:33.537Z,68.37
2023-05-14T23:08:35.310Z,67.60
2023-05-14T23:11:37.134Z,67.05
2023-05-14T23:14:38.923Z,66.60
2023-05-14T23:17:40.813Z,65.66
2023-05-14T23:20:45.318Z,64.43
2023-05-14T23:23:48.560Z,62.92
2023-05-14T23:26:50.379Z,62.04
2023-05-14T23:29:52.161Z,60.86
2023-05-14T23:32:54.186Z,60.14
2023-05-14T23:35:56.081Z,59.49
2023-05-14T23:38:58.942Z,59.46
2023-05-14T23:42:00.933Z,59.32
2023-05-14T23:45:02.693Z,59.15
2023-05-14T23:48:05.006Z,59.58
2023-05-14T23:51:06.788Z,60.73
2023-05-14T23:54:08.524Z,62.57
2023-05-14T23:57:13.002Z,63.92
